Time;durP1;ratioP1;P1;durP2;ratioP2;P2;SDS_P1;SDS_P2;PMS_P1;PMS_P2;Temp;Humidity;BMP_temperature;BMP_pressure;BME280_temperature;BME280_humidity;BME280_pressure;Samples;Min_cycle;Max_cycle;Signal;HPM_P1;HPM_P2
2023/04/03 00:01:38;;;;;;;0.57;0.57;;;2.90;99.90;;;;;;6215377;23;20189;-88
2023/04/03 00:04:05;;;;;;;0.40;0.40;;;2.90;99.90;;;;;;6191017;23;20197;-88
2023/04/03 00:06:31;;;;;;;0.53;0.53;;;2.90;99.90;;;;;;6214781;23;20244;-88
2023/04/03 00:08:57;;;;;;;0.70;0.70;;;2.90;99.90;;;;;;6215275;23;20193;-88
2023/04/03 00:11:23;;;;;;;0.30;0.30;;;2.80;99.90;;;;;;6215000;23;20643;-89
2023/04/03 00:13:49;;;;;;;0.63;0.60;;;2.80;99.90;;;;;;6214956;23;20494;-88
2023/04/03 00:16:14;;;;;;;0.43;0.43;;;2.80;99.90;;;;;;6215562;23;20185;-88
2023/04/03 00:18:40;;;;;;;1.00;1.00;;;2.80;99.90;;;;;;6239909;23;20209;-88
2023/04/03 00:21:07;;;;;;;0.50;0.50;;;2.80;99.90;;;;;;6214730;23;20193;-88
2023/04/03 00:23:33;;;;;;;0.30;0.30;;;2.70;99.90;;;;;;6214532;23;20201;-88
2023/04/03 00:25:59;;;;;;;0.40;0.40;;;2.60;99.90;;;;;;6240068;23;20534;-89
2023/04/03 00:28:25;;;;;;;0.40;0.40;;;2.60;99.90;;;;;;6220111;23;20162;-88
2023/04/03 00:30:51;;;;;;;0.53;0.53;;;2.50;99.90;;;;;;6245997;23;20214;-88
2023/04/03 00:33:17;;;;;;;0.40;0.40;;;2.50;99.90;;;;;;6245568;23;20194;-88
2023/04/03 00:35:43;;;;;;;0.80;0.80;;;2.50;99.90;;;;;;6245277;23;20194;-88
2023/04/03 00:38:09;;;;;;;1.13;1.07;;;2.50;99.90;;;;;;6219926;23;20698;-88
2023/04/03 00:40:42;;;;;;;0.30;0.30;;;2.40;99.90;;;;;;6221144;23;20178;-88
2023/04/03 00:43:16;;;;;;;0.60;0.60;;;2.40;99.90;;;;;;6245886;23;20162;-88
2023/04/03 00:45:45;;;;;;;0.40;0.40;;;2.30;99.90;;;;;;6220885;23;20193;-88
2023/04/03 00:48:18;;;;;;;0.67;0.67;;;2.20;99.90;;;;;;6241218;23;20217;-88
2023/04/03 00:50:45;;;;;;;0.40;0.40;;;2.20;99.90;;;;;;6242579;23;20212;-89
2023/04/03 00:53:18;;;;;;;0.50;0.50;;;2.10;99.90;;;;;;6214722;23;20745;-88
2023/04/03 00:55:46;;;;;;;0.63;0.63;;;2.10;99.90;;;;;;6240174;23;20451;-88
2023/04/03 00:58:13;;;;;;;0.70;0.70;;;2.10;99.90;;;;;;6240850;23;20193;-88
2023/04/03 01:00:44;;;;;;;0.40;0.40;;;2.10;99.90;;;;;;6214340;23;20631;-88
2023/04/03 01:03:10;;;;;;;0.50;0.50;;;2.10;99.90;;;;;;6239733;23;20199;-87
2023/04/03 01:05:35;;;;;;;0.50;0.50;;;2.10;99.90;;;;;;6214719;23;20213;-88
2023/04/03 01:08:01;;;;;;;0.40;0.40;;;2.10;99.90;;;;;;6214578;23;20208;-88
2023/04/03 01:10:27;;;;;;;0.50;0.50;;;2.10;99.90;;;;;;6215148;23;20163;-88
2023/04/03 01:12:53;;;;;;;0.40;0.40;;;2.00;99.90;;;;;;6214469;23;20202;-88
2023/04/03 01:15:22;;;;;;;0.83;0.83;;;2.00;99.90;;;;;;6214274;23;20216;-87
2023/04/03 01:17:51;;;;;;;0.60;0.60;;;2.00;99.90;;;;;;6239678;23;20253;-88
2023/04/03 01:20:32;;;;;;;0.50;0.50;;;1.90;99.90;;;;;;6239408;23;20197;-88
2023/04/03 01:23:07;;;;;;;0.40;0.40;;;1.90;99.90;;;;;;6239442;23;20190;-88
2023/04/03 01:25:39;;;;;;;0.60;0.60;;;1.90;99.90;;;;;;6239419;23;20185;-88
2023/04/03 01:28:08;;;;;;;0.50;0.50;;;1.90;99.90;;;;;;6240571;23;20466;-88
2023/04/03 01:30:44;;;;;;;0.40;0.40;;;1.90;99.90;;;;;;6240793;23;20662;-88
2023/04/03 01:33:10;;;;;;;0.50;0.50;;;1.90;99.90;;;;;;6241277;23;20194;-88
2023/04/03 01:35:35;;;;;;;0.40;0.40;;;1.90;99.90;;;;;;6216418;23;20216;-88
2023/04/03 01:38:01;;;;;;;1.03;0.70;;;1.80;99.90;;;;;;6216577;23;20190;-88
2023/04/03 01:40:27;;;;;;;0.93;0.50;;;1.80;99.90;;;;;;6217224;23;20182;-87
2023/04/03 01:42:53;;;;;;;0.30;0.30;;;1.90;99.90;;;;;;6216203;23;20194;-88
2023/04/03 01:45:18;;;;;;;0.60;0.60;;;1.80;99.90;;;;;;6216171;23;20247;-88
2023/04/03 01:47:44;;;;;;;0.57;0.50;;;1.80;99.90;;;;;;6216088;23;20217;-87
2023/04/03 01:50:10;;;;;;;0.73;0.73;;;1.80;99.90;;;;;;6216346;23;20201;-87
2023/04/03 01:52:36;;;;;;;0.70;0.70;;;1.70;99.90;;;;;;6216177;23;20196;-87
2023/04/03 01:55:01;;;;;;;0.50;0.50;;;1.70;99.90;;;;;;6216333;23;20594;-88
2023/04/03 01:57:27;;;;;;;0.50;0.50;;;1.60;99.90;;;;;;6215880;23;20198;-87
2023/04/03 01:59:53;;;;;;;0.40;0.40;;;1.60;99.90;;;;;;6216116;23;20193;-88
2023/04/03 02:02:20;;;;;;;0.40;0.40;;;1.60;99.90;;;;;;6216072;23;20189;-88
2023/04/03 02:04:46;;;;;;;0.60;0.60;;;1.50;99.90;;;;;;6216531;23;20184;-88
2023/04/03 02:07:12;;;;;;;0.63;0.63;;;1.50;99.90;;;;;;6216691;23;20166;-88
2023/04/03 02:09:37;;;;;;;0.50;0.50;;;1.50;99.90;;;;;;6215881;23;20190;-87
2023/04/03 02:12:03;;;;;;;0.47;0.47;;;1.40;99.90;;;;;;6215843;23;20301;-88
2023/04/03 02:14:29;;;;;;;0.60;0.60;;;1.40;99.90;;;;;;6190907;23;20206;-88
2023/04/03 02:16:55;;;;;;;0.40;0.40;;;1.40;99.90;;;;;;6216103;23;20191;-88
2023/04/03 02:19:21;;;;;;;0.50;0.50;;;1.40;99.90;;;;;;6216478;23;20182;-88
2023/04/03 02:21:47;;;;;;;0.40;0.40;;;1.40;99.90;;;;;;6215687;23;20205;-88
2023/04/03 02:24:12;;;;;;;0.53;0.53;;;1.30;99.90;;;;;;6190929;23;20225;-88
2023/04/03 02:26:38;;;;;;;1.17;1.17;;;1.40;99.90;;;;;;6215773;23;20214;-88
2023/04/03 02:29:04;;;;;;;0.77;0.67;;;1.30;99.90;;;;;;6215925;23;20198;-88
2023/04/03 02:31:30;;;;;;;0.80;0.80;;;1.30;99.90;;;;;;6216479;23;20626;-88
2023/04/03 02:33:55;;;;;;;0.30;0.30;;;1.30;99.90;;;;;;6190948;23;20615;-87
2023/04/03 02:36:21;;;;;;;0.40;0.40;;;1.20;99.90;;;;;;6215570;23;20190;-88
2023/04/03 02:38:48;;;;;;;0.53;0.53;;;1.20;99.90;;;;;;6215698;23;20194;-87
2023/04/03 02:41:14;;;;;;;0.60;0.60;;;1.30;99.90;;;;;;6215059;23;20198;-88
2023/04/03 02:43:40;;;;;;;0.67;0.67;;;1.20;99.90;;;;;;6215830;23;20249;-88
2023/04/03 02:46:06;;;;;;;0.50;0.50;;;1.30;99.90;;;;;;6216506;23;20248;-88
2023/04/03 02:48:32;;;;;;;22.53;1.07;;;1.20;99.90;;;;;;6240915;23;20630;-88
2023/04/03 02:50:58;;;;;;;0.73;0.73;;;1.30;99.90;;;;;;6240500;23;20202;-87
2023/04/03 02:53:24;;;;;;;0.30;0.30;;;1.40;99.90;;;;;;6215477;23;20236;-88
2023/04/03 02:55:50;;;;;;;0.77;0.77;;;1.50;99.90;;;;;;6215405;23;20213;-88
2023/04/03 02:58:16;;;;;;;0.30;0.30;;;1.30;99.90;;;;;;6215967;23;20154;-88
2023/04/03 03:00:42;;;;;;;0.70;0.70;;;1.20;99.90;;;;;;6215192;23;20194;-88
2023/04/03 03:03:08;;;;;;;0.40;0.40;;;1.20;99.90;;;;;;6240768;23;20198;-89
2023/04/03 03:05:33;;;;;;;0.87;0.87;;;1.20;99.90;;;;;;6215133;23;20197;-88
2023/04/03 03:07:59;;;;;;;0.40;0.40;;;1.20;99.90;;;;;;6215659;23;20276;-88
2023/04/03 03:10:25;;;;;;;0.40;0.40;;;1.20;99.90;;;;;;6216399;23;20182;-88
2023/04/03 03:12:51;;;;;;;0.50;0.50;;;1.20;99.90;;;;;;6214967;23;20202;-88
2023/04/03 03:15:17;;;;;;;0.40;0.40;;;1.20;99.90;;;;;;6240785;23;20584;-88
2023/04/03 03:17:43;;;;;;;0.73;0.73;;;1.20;99.90;;;;;;6215174;23;20237;-88
2023/04/03 03:20:10;;;;;;;0.90;0.87;;;1.10;99.90;;;;;;6215448;23;20189;-88
2023/04/03 03:22:36;;;;;;;0.43;0.43;;;1.10;99.90;;;;;;6215140;23;20207;-88
2023/04/03 03:25:02;;;;;;;0.90;0.90;;;1.20;99.90;;;;;;6216108;23;20164;-88
2023/04/03 03:27:29;;;;;;;1.00;1.00;;;1.30;99.90;;;;;;6214663;23;20275;-88
2023/04/03 03:29:55;;;;;;;0.30;0.30;;;1.20;99.90;;;;;;6215549;23;20201;-88
2023/04/03 03:32:21;;;;;;;0.40;0.40;;;1.20;99.90;;;;;;6215742;23;20264;-88
2023/04/03 03:34:47;;;;;;;0.70;0.70;;;1.20;99.90;;;;;;6215460;23;20228;-88
2023/04/03 03:37:12;;;;;;;0.30;0.30;;;1.10;99.90;;;;;;6215975;23;20178;-88
2023/04/03 03:39:38;;;;;;;0.50;0.50;;;1.10;99.90;;;;;;6214976;23;20201;-88
2023/04/03 03:42:04;;;;;;;0.33;0.33;;;1.10;99.90;;;;;;6214953;23;20268;-89
2023/04/03 03:44:29;;;;;;;0.40;0.40;;;1.10;99.90;;;;;;6215039;23;20198;-88
2023/04/03 03:46:56;;;;;;;0.60;0.60;;;1.10;99.90;;;;;;6215476;23;20194;-88
2023/04/03 03:49:22;;;;;;;0.43;0.43;;;1.00;99.90;;;;;;6215679;23;20155;-88
2023/04/03 03:51:48;;;;;;;0.50;0.50;;;1.00;99.90;;;;;;6214648;23;20716;-88
2023/04/03 03:54:14;;;;;;;0.40;0.40;;;1.00;99.90;;;;;;6214781;23;20221;-88
2023/04/03 03:56:39;;;;;;;1.53;1.53;;;1.10;99.90;;;;;;6239811;23;20197;-88
2023/04/03 03:59:06;;;;;;;1.30;0.60;;;1.30;99.90;;;;;;6240242;23;20217;-88
2023/04/03 04:01:32;;;;;;;0.40;0.40;;;1.20;99.90;;;;;;6215225;23;20186;-87
2023/04/03 04:03:58;;;;;;;0.40;0.40;;;1.20;99.90;;;;;;6215214;23;20162;-88
2023/04/03 04:06:23;;;;;;;0.60;0.60;;;1.10;99.90;;;;;;6214269;23;20265;-88
2023/04/03 04:08:49;;;;;;;0.33;0.33;;;0.90;99.90;;;;;;6189859;23;20225;-88
2023/04/03 04:11:15;;;;;;;0.50;0.50;;;0.60;99.90;;;;;;6214254;23;20252;-88
2023/04/03 04:13:41;;;;;;;0.60;0.60;;;0.50;99.90;;;;;;6214083;23;20244;-88
2023/04/03 04:16:07;;;;;;;0.53;0.53;;;0.50;99.90;;;;;;6215098;23;20150;-88
2023/04/03 04:18:33;;;;;;;1.17;1.17;;;0.40;99.90;;;;;;6214722;23;20510;-88
2023/04/03 04:21:00;;;;;;;0.80;0.80;;;0.40;99.90;;;;;;6214640;23;20209;-89
2023/04/03 04:23:25;;;;;;;0.73;0.73;;;0.40;99.90;;;;;;6216603;23;20193;-89
2023/04/03 04:25:51;;;;;;;0.80;0.80;;;0.40;99.90;;;;;;6219112;23;20517;-89
2023/04/03 04:28:17;;;;;;;9.53;1.43;;;0.40;99.90;;;;;;6217089;23;20150;-87
2023/04/03 04:30:43;;;;;;;0.40;0.40;;;0.40;99.90;;;;;;6239767;23;20205;-87
2023/04/03 04:33:09;;;;;;;1.90;1.43;;;0.50;99.90;;;;;;6239770;23;20197;-87
2023/04/03 04:35:35;;;;;;;0.53;0.53;;;0.50;99.90;;;;;;6217296;23;20194;-87
2023/04/03 04:38:02;;;;;;;0.47;0.47;;;0.60;99.90;;;;;;6242895;23;20252;-87
2023/04/03 04:40:28;;;;;;;0.40;0.40;;;0.60;99.90;;;;;;6215968;23;20161;-89
2023/04/03 04:42:54;;;;;;;0.40;0.40;;;0.60;99.90;;;;;;6214531;23;20194;-88
2023/04/03 04:45:20;;;;;;;0.50;0.50;;;0.50;99.90;;;;;;6214509;23;20220;-88
2023/04/03 04:47:45;;;;;;;0.40;0.40;;;0.40;99.90;;;;;;6240032;23;20204;-89
2023/04/03 04:50:11;;;;;;;0.70;0.70;;;0.40;99.90;;;;;;6215761;23;20693;-90
2023/04/03 04:52:37;;;;;;;0.50;0.50;;;0.20;99.90;;;;;;6216386;23;20182;-90
2023/04/03 04:55:03;;;;;;;0.67;0.67;;;0.20;99.90;;;;;;6215738;23;20497;-90
2023/04/03 04:57:29;;;;;;;0.60;0.60;;;0.10;99.90;;;;;;6189573;23;20642;-88
2023/04/03 04:59:55;;;;;;;0.50;0.50;;;0.20;99.90;;;;;;6215303;23;20256;-92
2023/04/03 05:02:21;;;;;;;0.40;0.40;;;0.30;99.90;;;;;;6214838;23;20292;-90
2023/04/03 05:04:47;;;;;;;0.40;0.40;;;0.30;99.90;;;;;;6220831;23;20161;-89
2023/04/03 05:07:12;;;;;;;0.73;0.73;;;0.30;99.90;;;;;;6221670;23;20158;-89
2023/04/03 05:09:41;;;;;;;0.50;0.50;;;0.20;99.90;;;;;;6215412;23;20217;-91
2023/04/03 05:12:06;;;;;;;0.80;0.80;;;0.10;99.90;;;;;;6241970;23;20210;-89
2023/04/03 05:14:32;;;;;;;0.80;0.80;;;-0.10;99.90;;;;;;6214883;23;20190;-90
2023/04/03 05:16:58;;;;;;;0.30;0.30;;;-0.20;99.90;;;;;;6215607;23;20193;-90
2023/04/03 05:19:24;;;;;;;0.40;0.40;;;-0.10;99.90;;;;;;6215380;23;20165;-89
2023/04/03 05:21:50;;;;;;;0.40;0.40;;;0.40;99.90;;;;;;6214633;23;20212;-90
2023/04/03 05:24:19;;;;;;;0.53;0.53;;;1.10;99.90;;;;;;6192025;23;20220;-90
2023/04/03 05:26:45;;;;;;;3.40;1.17;;;1.50;99.90;;;;;;6242226;23;20213;-90
2023/04/03 05:29:11;;;;;;;0.57;0.57;;;2.30;99.90;;;;;;6243871;23;20252;-89
2023/04/03 05:31:37;;;;;;;0.70;0.70;;;2.50;99.90;;;;;;6201227;23;20630;-90
2023/04/03 05:34:03;;;;;;;0.30;0.30;;;2.30;99.90;;;;;;6193107;23;20169;-91
2023/04/03 05:36:29;;;;;;;0.50;0.50;;;2.50;99.90;;;;;;6214367;23;20190;-90
2023/04/03 05:38:56;;;;;;;0.40;0.40;;;2.70;99.90;;;;;;6214286;23;20197;-90
2023/04/03 05:41:22;;;;;;;0.80;0.80;;;3.10;99.90;;;;;;6215357;23;20275;-90
2023/04/03 05:43:50;;;;;;;0.33;0.33;;;3.90;99.90;;;;;;6241888;23;20154;-92
2023/04/03 05:46:18;;;;;;;0.87;0.87;;;3.90;99.90;;;;;;6240690;23;20204;-90
2023/04/03 05:48:44;;;;;;;0.80;0.80;;;4.10;99.90;;;;;;6239486;23;20205;-91
2023/04/03 05:51:23;;;;;;;0.50;0.50;;;4.60;99.90;;;;;;6214441;23;20209;-91
2023/04/03 05:53:56;;;;;;;0.50;0.50;;;5.90;99.90;;;;;;6242042;23;20198;-88
2023/04/03 05:56:21;;;;;;;0.90;0.90;;;7.30;99.90;;;;;;6242929;23;20561;-89
2023/04/03 05:58:47;;;;;;;1.30;1.17;;;7.40;99.90;;;;;;6214482;23;20165;-91
2023/04/03 06:01:13;;;;;;;0.50;0.50;;;7.20;99.90;;;;;;6215383;23;20162;-90
2023/04/03 06:03:40;;;;;;;3.40;1.13;;;7.40;99.90;;;;;;6215485;23;20198;-91
2023/04/03 06:06:07;;;;;;;2.13;2.03;;;7.80;99.90;;;;;;6215462;23;20202;-89
2023/04/03 06:08:33;;;;;;;1.00;0.83;;;8.10;99.90;;;;;;6215021;23;20205;-91
2023/04/03 06:10:59;;;;;;;1.50;1.07;;;8.60;99.90;;;;;;6214717;23;20568;-91
2023/04/03 06:13:25;;;;;;;0.60;0.60;;;8.70;99.90;;;;;;6214369;23;20155;-90
2023/04/03 06:15:51;;;;;;;2.93;2.67;;;8.80;99.90;;;;;;6213643;23;20194;-90
2023/04/03 06:18:16;;;;;;;0.73;0.73;;;8.60;99.90;;;;;;6214121;23;20196;-91
2023/04/03 06:20:42;;;;;;;0.70;0.70;;;8.50;99.90;;;;;;6189209;23;20194;-92
2023/04/03 06:23:08;;;;;;;0.40;0.40;;;8.30;99.90;;;;;;6214093;23;20186;-90
2023/04/03 06:25:34;;;;;;;0.83;0.83;;;7.70;99.90;;;;;;6214084;23;20245;-90
2023/04/03 06:28:00;;;;;;;0.60;0.60;;;7.20;99.90;;;;;;6214618;23;20630;-89
2023/04/03 06:30:27;;;;;;;0.87;0.87;;;6.30;99.90;;;;;;6214099;23;20198;-89
2023/04/03 06:32:52;;;;;;;2.53;1.63;;;5.50;99.90;;;;;;6239718;23;21077;-92
2023/04/03 06:35:18;;;;;;;1.23;1.17;;;5.30;99.90;;;;;;6214204;23;20281;-89
2023/04/03 06:37:44;;;;;;;1.17;1.17;;;5.60;99.90;;;;;;6213872;23;20158;-90
2023/04/03 06:40:22;;;;;;;1.20;1.17;;;5.60;99.90;;;;;;6214120;23;20208;-90
2023/04/03 06:42:48;;;;;;;0.90;0.90;;;4.90;99.90;;;;;;6238914;23;20205;-91
2023/04/03 06:45:14;;;;;;;0.90;0.90;;;4.70;99.90;;;;;;6214239;23;20189;-92
2023/04/03 06:47:40;;;;;;;0.70;0.70;;;5.00;99.90;;;;;;6214886;23;20245;-89
2023/04/03 06:50:07;;;;;;;0.73;0.73;;;6.10;99.90;;;;;;6213863;23;20631;-91
2023/04/03 06:52:33;;;;;;;0.50;0.50;;;7.10;99.90;;;;;;6214533;23;20186;-91
2023/04/03 06:54:59;;;;;;;2.07;0.93;;;8.00;99.90;;;;;;6215009;23;20169;-90
2023/04/03 06:57:26;;;;;;;1.90;0.80;;;8.30;99.90;;;;;;6214416;23;20197;-91
2023/04/03 06:59:52;;;;;;;0.60;0.60;;;8.40;99.90;;;;;;6213936;23;20198;-91
2023/04/03 07:02:18;;;;;;;1.10;0.90;;;8.00;99.90;;;;;;6214314;23;20200;-92
2023/04/03 07:04:44;;;;;;;0.97;0.97;;;8.70;99.90;;;;;;6189955;23;20824;-92
2023/04/03 07:07:10;;;;;;;1.00;1.00;;;8.80;99.90;;;;;;6215131;23;20376;-91
2023/04/03 07:09:36;;;;;;;2.10;0.43;;;9.30;99.90;;;;;;6239083;23;20281;-92
2023/04/03 07:12:02;;;;;;;0.50;0.50;;;9.60;99.90;;;;;;6189241;23;20208;-91
2023/04/03 07:14:28;;;;;;;2.57;1.17;;;10.20;99.90;;;;;;6213812;23;20221;-92
2023/04/03 07:16:53;;;;;;;5.63;1.23;;;11.70;99.90;;;;;;6214073;23;20186;-93
2023/04/03 07:19:19;;;;;;;0.90;0.90;;;11.50;99.90;;;;;;6214222;23;20154;-91
2023/04/03 07:21:45;;;;;;;4.07;0.57;;;10.20;99.90;;;;;;6213985;23;20249;-91
2023/04/03 07:24:11;;;;;;;1.07;0.97;;;9.60;99.90;;;;;;6213544;23;20202;-94
2023/04/03 07:26:37;;;;;;;0.60;0.60;;;9.30;99.90;;;;;;6213202;23;20217;-93
2023/04/03 07:29:03;;;;;;;10.13;1.73;;;8.80;99.90;;;;;;6213804;23;20189;-92
2023/04/03 07:31:29;;;;;;;1.00;0.93;;;8.90;99.90;;;;;;6214052;23;20190;-90
2023/04/03 07:33:55;;;;;;;0.80;0.80;;;9.10;99.90;;;;;;6213815;23;20198;-92
2023/04/03 07:36:22;;;;;;;0.60;0.60;;;9.00;99.90;;;;;;6213781;23;20190;-93
2023/04/03 07:38:48;;;;;;;0.50;0.43;;;9.50;99.90;;;;;;6239125;23;20244;-93
2023/04/03 07:41:17;;;;;;;0.30;0.30;;;9.80;99.90;;;;;;6213499;23;20193;-92
2023/04/03 07:43:44;;;;;;;0.43;0.43;;;9.50;99.90;;;;;;6238811;23;20241;-92
2023/04/03 07:46:10;;;;;;;1.03;0.83;;;8.90;99.90;;;;;;6214202;23;20170;-91
2023/04/03 07:48:36;;;;;;;3.70;1.00;;;9.20;99.90;;;;;;6213403;23;20610;-93
2023/04/03 07:51:04;;;;;;;1.30;1.20;;;9.10;99.90;;;;;;6238291;23;20209;-93
2023/04/03 07:53:30;;;;;;;0.60;0.60;;;8.30;99.90;;;;;;6214202;23;20240;-93
2023/04/03 07:55:57;;;;;;;0.67;0.67;;;7.70;99.90;;;;;;6213438;23;20186;-92
2023/04/03 07:58:24;;;;;;;0.47;0.47;;;7.50;99.90;;;;;;6239461;23;20154;-91
2023/04/03 08:00:50;;;;;;;0.97;0.70;;;7.20;99.90;;;;;;6213209;23;20198;-93
2023/04/03 08:03:16;;;;;;;0.50;0.50;;;7.20;99.90;;;;;;6212665;23;20197;-91
2023/04/03 08:05:44;;;;;;;0.93;0.93;;;7.50;99.90;;;;;;6213427;23;20941;-92
2023/04/03 08:08:13;;;;;;;0.67;0.67;;;7.40;99.90;;;;;;6217496;23;20658;-90
2023/04/03 08:10:39;;;;;;;0.80;0.80;;;7.30;99.90;;;;;;6240533;23;20161;-95
2023/04/03 08:13:06;;;;;;;0.83;0.50;;;7.90;99.90;;;;;;6242199;23;20182;-94
2023/04/03 08:15:32;;;;;;;1.07;0.70;;;8.50;99.90;;;;;;6240453;23;20268;-94
2023/04/03 08:18:00;;;;;;;0.97;0.83;;;9.00;99.90;;;;;;6240492;23;20638;-93
2023/04/03 08:20:29;;;;;;;0.43;0.43;;;8.90;99.90;;;;;;6239298;23;20186;-92
2023/04/03 08:22:57;;;;;;;0.50;0.50;;;8.60;99.90;;;;;;6240028;23;20526;-93
2023/04/03 08:25:23;;;;;;;2.70;1.20;;;8.90;99.90;;;;;;6215225;23;20154;-93
2023/04/03 08:27:49;;;;;;;0.90;0.87;;;8.90;99.90;;;;;;6239805;23;20216;-95
2023/04/03 08:30:15;;;;;;;1.03;0.80;;;8.90;99.90;;;;;;6188986;23;20573;-94
2023/04/03 08:32:42;;;;;;;0.63;0.63;;;8.80;99.90;;;;;;6239053;23;20211;-94
2023/04/03 08:35:09;;;;;;;1.17;0.60;;;8.80;99.90;;;;;;6239353;23;20242;-94
2023/04/03 08:37:36;;;;;;;1.07;0.97;;;8.90;99.90;;;;;;6213958;23;20297;-93
2023/04/03 08:40:05;;;;;;;1.07;0.90;;;9.30;99.90;;;;;;6239255;23;20158;-93
2023/04/03 08:43:04;;;;;;;0.50;0.50;;;9.40;99.90;;;;;;6238724;23;20626;-95
2023/04/03 08:45:49;;;;;;;0.70;0.63;;;9.10;99.90;;;;;;6238739;23;20953;-94
2023/04/03 08:48:40;;;;;;;1.00;0.60;;;9.80;99.90;;;;;;6238729;23;20200;-93
2023/04/03 08:51:16;;;;;;;0.90;0.90;;;9.40;99.90;;;;;;6238451;23;20202;-94
2023/04/03 08:53:55;;;;;;;1.33;0.90;;;9.40;99.90;;;;;;6237921;23;20529;-94
2023/04/03 08:56:22;;;;;;;1.17;1.13;;;9.20;99.90;;;;;;6237749;23;20193;-94
2023/04/03 08:58:54;;;;;;;0.73;0.73;;;9.50;99.90;;;;;;6213347;23;20154;-94
2023/04/03 09:01:29;;;;;;;3.13;0.97;;;9.80;99.90;;;;;;6238933;23;20157;-92
2023/04/03 09:03:55;;;;;;;0.63;0.60;;;9.80;99.90;;;;;;6238584;23;20706;-93
2023/04/03 09:06:26;;;;;;;1.20;0.80;;;9.70;99.90;;;;;;6212641;23;20233;-93
2023/04/03 09:09:14;;;;;;;0.40;0.40;;;9.70;99.90;;;;;;6238362;23;20197;-93
2023/04/03 09:11:58;;;;;;;1.70;1.30;;;9.90;99.90;;;;;;6237976;23;20210;-92
2023/04/03 09:14:35;;;;;;;0.30;0.30;;;9.80;99.90;;;;;;6238384;23;20508;-93
2023/04/03 09:17:26;;;;;;;0.50;0.50;;;9.50;99.90;;;;;;6238059;23;20530;-93
2023/04/03 09:20:19;;;;;;;0.30;0.30;;;9.90;99.90;;;;;;6238098;23;20190;-94
2023/04/03 09:22:46;;;;;;;0.67;0.67;;;9.80;99.90;;;;;;6212331;23;20162;-94
2023/04/03 09:25:15;;;;;;;0.40;0.40;;;9.60;99.90;;;;;;6213878;23;20487;-94
2023/04/03 09:27:41;;;;;;;2.67;0.50;;;9.50;99.90;;;;;;6237939;23;20275;-94
2023/04/03 09:30:14;;;;;;;1.73;0.50;;;9.80;99.90;;;;;;6238428;23;20212;-93
2023/04/03 09:32:40;;;;;;;0.80;0.80;;;10.10;99.90;;;;;;6239816;23;20701;-93
2023/04/03 09:35:30;;;;;;;0.20;0.20;;;10.20;99.90;;;;;;6240093;23;20190;-94
2023/04/03 09:38:13;;;;;;;0.47;0.47;;;10.30;99.90;;;;;;6239304;23;20297;-93
2023/04/03 09:40:45;;;;;;;0.93;0.50;;;10.40;99.90;;;;;;6238068;23;20216;-94
2023/04/03 09:43:17;;;;;;;0.40;0.40;;;10.20;99.90;;;;;;6238345;23;20155;-94
2023/04/03 09:45:44;;;;;;;0.60;0.60;;;10.20;99.90;;;;;;6238256;23;20256;-94
2023/04/03 09:48:13;;;;;;;0.37;0.37;;;10.60;99.90;;;;;;6212763;23;20197;-95
2023/04/03 09:51:01;;;;;;;0.20;0.20;;;10.20;99.90;;;;;;6238799;23;20198;-93
2023/04/03 09:53:37;;;;;;;0.77;0.53;;;10.10;99.90;;;;;;6240379;23;20744;-92
2023/04/03 09:56:22;;;;;;;0.73;0.50;;;10.30;99.90;;;;;;6241123;23;20204;-93
2023/04/03 09:59:00;;;;;;;0.40;0.40;;;11.00;99.90;;;;;;6241405;23;20162;-93
2023/04/03 10:01:31;;;;;;;0.70;0.70;;;10.30;99.90;;;;;;6240544;23;20567;-92
2023/04/03 10:04:17;;;;;;;0.60;0.60;;;10.10;99.90;;;;;;6214698;23;20186;-90
2023/04/03 10:06:54;;;;;;;1.57;0.80;;;10.00;99.90;;;;;;6240802;23;20205;-94
2023/04/03 10:09:24;;;;;;;0.40;0.40;;;10.60;99.90;;;;;;6239482;23;20197;-94
2023/04/03 10:12:11;;;;;;;0.83;0.83;;;10.30;99.90;;;;;;6239872;23;20205;-94
2023/04/03 10:14:55;;;;;;;0.73;0.73;;;10.10;99.90;;;;;;6239905;23;20208;-93
2023/04/03 10:17:32;;;;;;;0.30;0.30;;;10.10;99.90;;;;;;6240824;23;20190;-93
2023/04/03 10:20:15;;;;;;;0.57;0.57;;;10.50;99.90;;;;;;6239994;23;20228;-94
2023/04/03 10:23:17;;;;;;;0.53;0.37;;;10.70;99.90;;;;;;6239662;23;20150;-94
2023/04/03 10:26:15;;;;;;;0.40;0.40;;;10.60;99.90;;;;;;6242202;23;20229;-94
2023/04/03 10:29:03;;;;;;;0.60;0.60;;;10.40;99.90;;;;;;6188155;23;20169;-92
2023/04/03 10:31:50;;;;;;;2.33;0.50;;;9.80;99.90;;;;;;6244381;23;20615;-92
2023/04/03 10:34:24;;;;;;;0.30;0.30;;;10.00;99.90;;;;;;6246804;23;20178;-93
2023/04/03 10:37:01;;;;;;;0.57;0.40;;;10.60;99.90;;;;;;6246743;23;20905;-93
2023/04/03 10:39:27;;;;;;;0.40;0.40;;;10.70;99.90;;;;;;6243895;23;20205;-93
2023/04/03 10:41:55;;;;;;;0.90;0.50;;;10.80;99.90;;;;;;6241684;23;20201;-93
2023/04/03 10:44:35;;;;;;;0.20;0.20;;;10.60;99.90;;;;;;6244430;23;20258;-93
2023/04/03 10:47:12;;;;;;;0.37;0.30;;;10.70;99.90;;;;;;6245873;23;20194;-94
2023/04/03 10:49:58;;;;;;;0.73;0.70;;;10.60;99.90;;;;;;6247622;23;20150;-94
2023/04/03 10:52:36;;;;;;;1.10;1.00;;;10.50;99.90;;;;;;6249616;23;20173;-94
2023/04/03 10:55:13;;;;;;;3.23;0.57;;;10.60;99.90;;;;;;6216402;23;20186;-94
2023/04/03 10:57:40;;;;;;;0.77;0.77;;;10.70;99.90;;;;;;6218076;23;20229;-95
2023/04/03 11:00:29;;;;;;;0.40;0.40;;;10.70;99.90;;;;;;6214206;23;20202;-95
2023/04/03 11:03:00;;;;;;;0.73;0.50;;;10.60;99.90;;;;;;6193450;23;20194;-93
2023/04/03 11:05:37;;;;;;;0.87;0.50;;;10.00;99.90;;;;;;6242538;23;20189;-94
2023/04/03 11:08:24;;;;;;;0.30;0.30;;;10.20;99.90;;;;;;6241671;23;20212;-94
2023/04/03 11:10:51;;;;;;;0.30;0.30;;;10.10;99.90;;;;;;6207096;23;20138;-96
2023/04/03 11:13:21;;;;;;;0.40;0.40;;;9.90;99.90;;;;;;6192263;23;20166;-92
2023/04/03 11:15:51;;;;;;;0.57;0.33;;;9.80;99.90;;;;;;6239764;23;20643;-93
2023/04/03 11:18:47;;;;;;;0.30;0.30;;;10.10;99.90;;;;;;6241540;23;20197;-93
2023/04/03 11:21:39;;;;;;;0.40;0.40;;;9.80;99.90;;;;;;6217364;23;20200;-95
2023/04/03 11:24:15;;;;;;;0.40;0.30;;;9.60;99.90;;;;;;6216940;23;20193;-94
2023/04/03 11:26:42;;;;;;;0.40;0.40;;;9.60;99.90;;;;;;6244328;23;20230;-94
2023/04/03 11:29:18;;;;;;;0.20;0.20;;;9.90;99.90;;;;;;6246384;23;20220;-91
2023/04/03 11:32:22;;;;;;;0.30;0.30;;;9.60;99.90;;;;;;6244012;23;20549;-93
2023/04/03 11:34:53;;;;;;;2.90;0.47;;;9.40;99.90;;;;;;6235525;23;20146;-95
2023/04/03 11:37:29;;;;;;;0.43;0.43;;;9.70;99.90;;;;;;6221459;23;20143;-92
2023/04/03 11:40:02;;;;;;;1.60;1.07;;;9.80;99.90;;;;;;6240822;23;20189;-93
2023/04/03 11:42:42;;;;;;;0.40;0.40;;;10.00;99.90;;;;;;6245804;23;20201;-93
2023/04/03 11:45:26;;;;;;;0.20;0.20;;;9.90;99.90;;;;;;6247459;23;20205;-96
2023/04/03 11:47:59;;;;;;;0.30;0.30;;;9.70;99.90;;;;;;6219992;23;20205;-93
2023/04/03 11:50:37;;;;;;;0.50;0.50;;;9.50;99.90;;;;;;6247544;23;20531;-93
2023/04/03 11:53:11;;;;;;;0.30;0.30;;;9.30;99.90;;;;;;6249688;23;20581;-94
2023/04/03 11:55:49;;;;;;;0.47;0.47;;;9.40;99.90;;;;;;6238959;23;20162;-93
2023/04/03 11:58:26;;;;;;;0.60;0.60;;;9.60;99.90;;;;;;6231220;23;20154;-94
2023/04/03 12:01:16;;;;;;;0.50;0.50;;;9.80;99.90;;;;;;6237638;23;20271;-93
2023/04/03 12:04:32;;;;;;;0.30;0.30;;;9.90;99.90;;;;;;6226271;23;20240;-92
2023/04/03 12:07:13;;;;;;;0.40;0.37;;;9.60;99.90;;;;;;6218601;23;20186;-92
2023/04/03 12:10:16;;;;;;;0.57;0.50;;;9.60;99.90;;;;;;6252971;23;20263;-92
2023/04/03 12:13:04;;;;;;;4.47;1.43;;;9.60;99.90;;;;;;6212703;23;20200;-95
2023/04/03 12:15:48;;;;;;;4.63;0.40;;;9.80;99.90;;;;;;6198785;23;20195;-94
2023/04/03 12:18:51;;;;;;;0.43;0.43;;;9.80;99.90;;;;;;6213080;23;20273;-96
2023/04/03 12:21:41;;;;;;;1.90;0.77;;;9.40;99.90;;;;;;6190226;23;20194;-95
2023/04/03 12:24:13;;;;;;;0.27;0.27;;;9.50;99.90;;;;;;6160190;23;20701;-95
2023/04/03 12:26:55;;;;;;;0.47;0.30;;;9.60;99.90;;;;;;6206312;23;20242;-95
2023/04/03 12:29:24;;;;;;;0.30;0.30;;;9.40;99.90;;;;;;6205715;23;20565;-96
2023/04/03 12:32:31;;;;;;;0.20;0.20;;;9.50;99.90;;;;;;6197417;23;20190;-96
2023/04/03 12:35:19;;;;;;;1.20;1.10;;;9.50;99.90;;;;;;6226487;23;20194;-94
2023/04/03 12:38:13;;;;;;;2.63;0.60;;;9.30;99.90;;;;;;6236019;23;20225;-94
2023/04/03 12:40:52;;;;;;;4.03;0.80;;;9.40;99.90;;;;;;6176249;23;20158;-95
2023/04/03 12:43:42;;;;;;;0.33;0.33;;;9.30;99.90;;;;;;6173163;23;20190;-95
2023/04/03 12:46:08;;;;;;;0.67;0.53;;;9.30;99.90;;;;;;6221338;23;20219;-96
2023/04/03 12:48:45;;;;;;;0.60;0.60;;;9.20;99.90;;;;;;6193474;23;20205;-96
2023/04/03 12:51:17;;;;;;;0.47;0.47;;;9.40;99.90;;;;;;6238993;23;20236;-95
2023/04/03 12:53:46;;;;;;;0.53;0.30;;;9.50;99.90;;;;;;6231638;23;20202;-96
2023/04/03 12:56:27;;;;;;;0.27;0.27;;;9.40;99.90;;;;;;6196705;23;20747;-96
2023/04/03 12:59:15;;;;;;;1.63;0.70;;;9.50;99.90;;;;;;6191695;23;20228;-94
2023/04/03 13:01:58;;;;;;;0.63;0.63;;;9.20;99.90;;;;;;6217328;23;20163;-96
2023/04/03 13:04:26;;;;;;;7.33;1.70;;;9.20;99.90;;;;;;6221528;23;20221;-94
2023/04/03 13:06:55;;;;;;;0.40;0.40;;;9.20;99.90;;;;;;6218502;23;20194;-95
2023/04/03 13:09:27;;;;;;;0.20;0.20;;;9.20;99.90;;;;;;6217650;23;20229;-94
2023/04/03 13:12:00;;;;;;;0.63;0.53;;;9.20;99.90;;;;;;6205465;23;20252;-95
2023/04/03 13:14:28;;;;;;;0.70;0.70;;;9.30;99.90;;;;;;6185094;23;20197;-94